createdAt,value
2023-05-05T00:00:02.122Z,99708.34
2023-05-05T00:02:29.086Z,99703.97
2023-05-05T00:04:56.121Z,99713.88
2023-05-05T00:07:23.166Z,99708.69
2023-05-05T00:09:49.965Z,99712.59
2023-05-05T00:12:16.992Z,99710.47
2023-05-05T00:14:44.004Z,99707.69
2023-05-05T00:17:11.043Z,99705.44
2023-05-05T00:19:41.508Z,99704.63
2023-05-05T00:22:08.552Z,99707.88
2023-05-05T00:24:36.022Z,99711.59
2023-05-05T00:27:03.563Z,99711.59
2023-05-05T00:29:30.681Z,99713.06
2023-05-05T00:31:57.543Z,99714.53
2023-05-05T00:34:24.571Z,99708.03
2023-05-05T00:36:51.472Z,99720.06
2023-05-05T00:39:18.287Z,99715.34
2023-05-05T00:41:45.343Z,99713.72
2023-05-05T00:44:12.475Z,99709.16
2023-05-05T00:46:41.714Z,99707.84
2023-05-05T00:49:10.117Z,99720.22
2023-05-05T00:51:37.217Z,99705.25
2023-05-05T00:54:07.413Z,99709.19
2023-05-05T00:56:34.352Z,99715.19
2023-05-05T00:59:02.763Z,99716.31
2023-05-05T01:01:32.947Z,99714.38
2023-05-05T01:04:00.023Z,99706.88
2023-05-05T01:06:36.765Z,99720.06
2023-05-05T01:09:22.274Z,99731.59
2023-05-05T01:12:34.864Z,99712.91
2023-05-05T01:15:04.487Z,99709.66
2023-05-05T01:17:42.730Z,99708.38
2023-05-05T01:20:33.523Z,99707.19
2023-05-05T01:23:07.330Z,99702.50
2023-05-05T01:25:40.076Z,99699.72
2023-05-05T01:28:20.761Z,99693.56
2023-05-05T01:31:09.542Z,99703.50
2023-05-05T01:33:46.490Z,99700.41
2023-05-05T01:36:22.929Z,99694.56
2023-05-05T01:38:57.709Z,99685.59
2023-05-05T01:41:33.182Z,99692.28
2023-05-05T01:44:06.015Z,99685.44
2023-05-05T01:46:35.498Z,99689.34
2023-05-05T01:49:03.006Z,99679.75
2023-05-05T01:51:34.363Z,99673.09
2023-05-05T01:54:08.170Z,99696.66
2023-05-05T01:56:38.751Z,99676.19
2023-05-05T01:59:07.295Z,99677.16
2023-05-05T02:01:39.425Z,99682.19
2023-05-05T02:04:09.907Z,99689.50
2023-05-05T02:06:40.272Z,99696.97
2023-05-05T02:09:12.409Z,99686.75
2023-05-05T02:11:40.636Z,99697.31
2023-05-05T02:14:09.306Z,99679.91
2023-05-05T02:16:38.126Z,99684.47
2023-05-05T02:19:05.963Z,99694.72
2023-05-05T02:21:34.320Z,99691.28
2023-05-05T02:24:02.617Z,99688.53
2023-05-05T02:26:34.078Z,99696.81
2023-05-05T02:29:08.176Z,99694.69
2023-05-05T02:31:42.343Z,99682.78
2023-05-05T02:34:11.377Z,99681.66
2023-05-05T02:36:41.225Z,99689.81
2023-05-05T02:39:21.688Z,99684.28
2023-05-05T02:41:51.354Z,99685.44
2023-05-05T02:44:27.560Z,99681.53
2023-05-05T02:46:55.115Z,99676.50
2023-05-05T02:49:23.217Z,99666.09
2023-05-05T02:51:51.219Z,99675.34
2023-05-05T02:54:24.272Z,99675.69
2023-05-05T02:56:56.832Z,99668.97
2023-05-05T02:59:30.201Z,99682.34
2023-05-05T03:02:39.436Z,99672.28
2023-05-05T03:05:13.480Z,99663.31
2023-05-05T03:08:16.257Z,99670.59
2023-05-05T03:10:51.721Z,99673.25
2023-05-05T03:13:23.234Z,99677.94
2023-05-05T03:15:53.180Z,99674.38
2023-05-05T03:18:25.422Z,99681.53
2023-05-05T03:21:08.831Z,99677.25
2023-05-05T03:23:39.088Z,99684.63
2023-05-05T03:26:11.595Z,99672.56
2023-05-05T03:28:42.197Z,99683.00
2023-05-05T03:31:18.470Z,99679.09
2023-05-05T03:33:50.398Z,99684.78
2023-05-05T03:36:20.267Z,99683.59
2023-05-05T03:38:47.594Z,99674.34
2023-05-05T03:41:15.100Z,99680.69
2023-05-05T03:43:42.248Z,99681.81
2023-05-05T03:46:10.368Z,99690.97
2023-05-05T03:48:37.920Z,99689.31
2023-05-05T03:51:04.901Z,99688.69
2023-05-05T03:53:34.037Z,99676.66
2023-05-05T03:56:04.420Z,99697.63
2023-05-05T03:58:31.659Z,99696.97
2023-05-05T04:00:58.585Z,99694.84
2023-05-05T04:03:26.086Z,99695.19
2023-05-05T04:05:53.464Z,99706.25
2023-05-05T04:08:21.425Z,99708.03
2023-05-05T04:10:48.319Z,99712.75
2023-05-05T04:13:15.765Z,99714.38
2023-05-05T04:15:46.833Z,99714.88
2023-05-05T04:18:15.019Z,99720.38
2023-05-05T04:20:42.198Z,99724.94
2023-05-05T04:23:10.647Z,99716.97
2023-05-05T04:25:38.136Z,99720.53
2023-05-05T04:28:05.731Z,99719.91
2023-05-05T04:30:33.639Z,99714.84
2023-05-05T04:33:01.012Z,99725.59
2023-05-05T04:35:28.214Z,99720.88
2023-05-05T04:37:55.190Z,99722.50
2023-05-05T04:40:22.952Z,99729.81
2023-05-05T04:42:51.372Z,99721.84
2023-05-05T04:45:18.183Z,99708.50
2023-05-05T04:47:45.449Z,99722.00
2023-05-05T04:50:12.576Z,99728.34
2023-05-05T04:52:52.772Z,99705.44
2023-05-05T04:55:20.390Z,99718.59
2023-05-05T05:00:29.134Z,99701.34
2023-05-05T05:02:56.199Z,99716.50
2023-05-05T05:05:23.408Z,99712.25
2023-05-05T05:07:50.756Z,99716.97
2023-05-05T05:10:18.280Z,99706.72
2023-05-05T05:12:48.214Z,99709.00
2023-05-05T05:15:15.474Z,99719.72
2023-05-05T05:17:42.524Z,99722.00
2023-05-05T05:20:10.094Z,99710.78
2023-05-05T05:22:38.839Z,99715.75
2023-05-05T05:25:10.003Z,99723.06
2023-05-05T05:27:37.348Z,99713.31
2023-05-05T05:30:04.820Z,99722.56
2023-05-05T05:32:33.414Z,99724.19
2023-05-05T05:35:01.295Z,99710.81
2023-05-05T05:37:31.583Z,99722.66
2023-05-05T05:39:59.367Z,99717.84
2023-05-05T05:42:28.471Z,99727.56
2023-05-05T05:44:55.741Z,99729.06
2023-05-05T05:47:23.827Z,99720.06
2023-05-05T05:49:51.100Z,99724.59
2023-05-05T05:52:19.676Z,99722.38
2023-05-05T05:54:46.666Z,99722.47
2023-05-05T05:57:13.525Z,99731.69
2023-05-05T05:59:40.500Z,99726.81
2023-05-05T06:02:08.033Z,99729.53
2023-05-05T06:04:35.446Z,99722.97
2023-05-05T06:07:02.452Z,99730.97
2023-05-05T06:09:29.669Z,99736.97
2023-05-05T06:11:56.632Z,99727.38
2023-05-05T06:14:23.576Z,99732.09
2023-05-05T06:16:52.297Z,99729.28
2023-05-05T06:19:21.736Z,99732.03
2023-05-05T06:21:49.315Z,99726.81
2023-05-05T06:24:16.208Z,99732.50
2023-05-05T06:26:43.485Z,99737.16
2023-05-05T06:29:12.196Z,99736.25
2023-05-05T06:31:39.471Z,99749.78
2023-05-05T06:34:06.341Z,99750.13
2023-05-05T06:36:33.476Z,99749.31
2023-05-05T06:39:00.567Z,99748.03
2023-05-05T06:41:27.690Z,99754.56
2023-05-05T06:43:54.471Z,99746.44
2023-05-05T06:46:21.554Z,99747.41
2023-05-05T06:48:48.573Z,99748.06
2023-05-05T06:51:16.334Z,99744.63
2023-05-05T06:53:43.123Z,99752.56
2023-05-05T06:56:11.456Z,99756.38
2023-05-05T06:58:38.495Z,99758.94
2023-05-05T07:01:05.883Z,99754.22
2023-05-05T07:03:32.998Z,99765.31
2023-05-05T07:05:59.960Z,99766.59
2023-05-05T07:08:26.867Z,99765.63
2023-05-05T07:10:53.900Z,99771.84
2023-05-05T07:13:21.038Z,99767.63
2023-05-05T07:15:48.047Z,99789.41
2023-05-05T07:18:16.492Z,99772.16
2023-05-05T07:20:46.590Z,99773.16
2023-05-05T07:23:13.634Z,99769.91
2023-05-05T07:25:40.784Z,99769.91
2023-05-05T07:28:07.947Z,99768.59
2023-05-05T07:30:34.941Z,99774.09
2023-05-05T07:33:02.031Z,99775.88
2023-05-05T07:35:29.009Z,99771.31
2023-05-05T07:37:56.018Z,99779.97
2023-05-05T07:40:22.971Z,99762.94
2023-05-05T07:42:50.150Z,99777.84
2023-05-05T07:45:17.007Z,99778.22
2023-05-05T07:47:44.381Z,99772.94
2023-05-05T07:50:11.694Z,99781.50
2023-05-05T07:52:48.446Z,99778.00
2023-05-05T07:55:20.961Z,99784.50
2023-05-05T07:57:48.305Z,99786.13
2023-05-05T08:00:15.680Z,99786.69
2023-05-05T08:02:44.229Z,99788.19
2023-05-05T08:05:12.086Z,99777.34
2023-05-05T08:07:41.613Z,99789.81
2023-05-05T08:10:11.461Z,99783.22
2023-05-05T08:12:39.238Z,99789.53
2023-05-05T08:15:07.070Z,99794.47
2023-05-05T08:17:55.883Z,99786.13
2023-05-05T08:20:23.068Z,99791.91
2023-05-05T08:22:50.363Z,99783.03
2023-05-05T08:25:17.226Z,99783.75
2023-05-05T08:27:45.134Z,99788.03
2023-05-05T08:30:12.847Z,99800.53
2023-05-05T08:32:39.771Z,99798.88
2023-05-05T08:35:07.597Z,99797.78
2023-05-05T08:37:35.062Z,99794.41
2023-05-05T08:40:02.015Z,99793.38
2023-05-05T08:42:38.049Z,99792.09
2023-05-05T08:45:10.646Z,99795.75
2023-05-05T08:47:39.499Z,99798.38
2023-05-05T08:50:09.934Z,99798.03
2023-05-05T08:52:42.104Z,99797.50
2023-05-05T08:55:26.610Z,99809.22
2023-05-05T08:57:57.559Z,99804.22
2023-05-05T09:00:24.660Z,99800.44
2023-05-05T09:02:52.709Z,99794.94
2023-05-05T09:05:19.588Z,99793.41
2023-05-05T09:07:47.603Z,99788.84
2023-05-05T09:10:14.745Z,99790.00
2023-05-05T09:12:42.192Z,99787.88
2023-05-05T09:15:11.915Z,99786.38
2023-05-05T09:17:39.744Z,99783.94
2023-05-05T09:20:14.771Z,99788.56
2023-05-05T09:22:43.615Z,99792.84
2023-05-05T09:25:15.685Z,99792.69
2023-05-05T09:27:48.174Z,99797.78
2023-05-05T09:30:24.380Z,99795.25
2023-05-05T09:32:54.447Z,99784.75
2023-05-05T09:35:23.349Z,99798.75
2023-05-05T09:37:50.851Z,99786.84
2023-05-05T09:40:22.303Z,99771.06
2023-05-05T09:43:02.872Z,99788.47
2023-05-05T09:45:32.049Z,99799.72
2023-05-05T09:48:00.533Z,99785.66
2023-05-05T09:50:30.957Z,99792.97
2023-05-05T09:53:00.900Z,99787.63
2023-05-05T09:55:33.834Z,99787.91
2023-05-05T09:58:24.381Z,99792.63
2023-05-05T10:00:52.007Z,99797.63
2023-05-05T10:03:19.306Z,99774.22
2023-05-05T10:05:52.134Z,99796.22
2023-05-05T10:08:21.149Z,99775.88
2023-05-05T10:10:52.359Z,99788.50
2023-05-05T10:13:21.190Z,99786.69
2023-05-05T10:15:53.963Z,99786.75
2023-05-05T10:18:25.942Z,99776.09
2023-05-05T10:20:58.628Z,99772.59
2023-05-05T10:23:39.831Z,99771.34
2023-05-05T10:26:08.180Z,99760.31
2023-05-05T10:28:43.528Z,99769.13
2023-05-05T10:31:37.541Z,99770.97
2023-05-05T10:34:09.893Z,99773.03
2023-05-05T10:36:39.280Z,99768.06
2023-05-05T10:39:10.929Z,99766.53
2023-05-05T10:41:39.027Z,99773.91
2023-05-05T10:44:06.813Z,99772.38
2023-05-05T10:46:34.105Z,99765.75
2023-05-05T10:49:22.474Z,99768.84
2023-05-05T10:52:14.264Z,99767.56
2023-05-05T10:54:54.621Z,99762.63
2023-05-05T10:57:26.305Z,99750.34
2023-05-05T10:59:53.162Z,99755.56
2023-05-05T11:02:28.173Z,99759.03
2023-05-05T11:05:15.263Z,99754.03
2023-05-05T11:07:44.050Z,99745.28
2023-05-05T11:10:12.981Z,99749.38
2023-05-05T11:12:52.132Z,99744.38
2023-05-05T11:15:28.187Z,99743.91
2023-05-05T11:17:56.446Z,99727.94
2023-05-05T11:20:36.045Z,99736.63
2023-05-05T11:23:03.780Z,99730.31
2023-05-05T11:25:36.853Z,99719.50
2023-05-05T11:28:11.394Z,99717.34
2023-05-05T11:30:57.272Z,99712.97
2023-05-05T11:33:32.035Z,99713.19
2023-05-05T11:36:05.816Z,99705.16
2023-05-05T11:38:36.254Z,99706.88
2023-05-05T11:41:12.534Z,99708.25
2023-05-05T11:43:41.864Z,99692.56
2023-05-05T11:46:16.812Z,99684.47
2023-05-05T11:48:46.714Z,99694.81
2023-05-05T11:51:14.904Z,99683.41
2023-05-05T11:53:43.894Z,99682.94
2023-05-05T11:56:12.027Z,99672.25
2023-05-05T11:58:38.998Z,99683.78
2023-05-05T12:01:07.498Z,99670.28
2023-05-05T12:03:36.417Z,99679.25
2023-05-05T12:06:04.741Z,99671.59
2023-05-05T12:08:41.325Z,99657.06
2023-05-05T12:11:10.053Z,99658.59
2023-05-05T12:13:37.374Z,99656.75
2023-05-05T12:16:14.573Z,99648.00
2023-05-05T12:18:42.039Z,99639.34
2023-05-05T12:21:19.834Z,99644.56
2023-05-05T12:23:47.267Z,99637.34
2023-05-05T12:26:29.284Z,99645.81
2023-05-05T12:29:00.408Z,99642.63
2023-05-05T12:31:37.921Z,99634.13
2023-05-05T12:34:06.897Z,99626.63
2023-05-05T12:36:34.752Z,99632.78
2023-05-05T12:39:02.059Z,99624.03
2023-05-05T12:41:29.084Z,99615.00
2023-05-05T12:43:57.300Z,99607.03
2023-05-05T12:46:24.838Z,99603.53
2023-05-05T12:49:06.606Z,99598.78
2023-05-05T12:51:36.158Z,99600.19
2023-05-05T12:54:07.541Z,99598.44
2023-05-05T12:56:40.740Z,99598.25
2023-05-05T12:59:08.492Z,99599.88
2023-05-05T13:02:06.024Z,99545.84
2023-05-05T13:04:33.259Z,99595.97
2023-05-05T13:07:16.839Z,99594.00
2023-05-05T13:09:44.088Z,99590.47
2023-05-05T13:12:14.035Z,99579.38
2023-05-05T13:14:41.828Z,99582.78
2023-05-05T13:17:09.225Z,99580.00
2023-05-05T13:19:41.932Z,99578.22
2023-05-05T13:22:13.046Z,99585.34
2023-05-05T13:27:46.829Z,99573.81
2023-05-05T13:30:14.167Z,99564.63
2023-05-05T13:32:41.626Z,99568.59
2023-05-05T13:35:09.325Z,99568.78
2023-05-05T13:37:36.526Z,99559.16
2023-05-05T13:40:03.865Z,99561.38
2023-05-05T13:42:31.043Z,99559.56
2023-05-05T13:44:57.859Z,99540.44
2023-05-05T13:47:25.021Z,99559.84
2023-05-05T13:49:52.072Z,99551.03
2023-05-05T13:52:19.047Z,99547.03
2023-05-05T13:54:46.111Z,99555.16
2023-05-05T13:57:13.504Z,99560.28
2023-05-05T13:59:40.668Z,99550.00
2023-05-05T14:02:07.779Z,99536.69
2023-05-05T14:04:34.799Z,99547.97
2023-05-05T14:07:02.179Z,99530.38
2023-05-05T14:09:28.975Z,99534.56
2023-05-05T14:11:55.902Z,99544.25
2023-05-05T14:14:22.858Z,99538.34
2023-05-05T14:16:50.494Z,99531.25
2023-05-05T14:19:17.742Z,99535.22
2023-05-05T14:21:44.562Z,99525.38
2023-05-05T14:24:11.649Z,99521.38
2023-05-05T14:26:38.500Z,99534.91
2023-05-05T14:29:05.440Z,99530.63
2023-05-05T14:35:48.559Z,99528.19
2023-05-05T14:38:15.653Z,99532.16
2023-05-05T14:40:42.830Z,99537.31
2023-05-05T14:43:09.775Z,99513.16
2023-05-05T14:45:36.790Z,99530.41
2023-05-05T14:48:10.687Z,99527.72
2023-05-05T14:50:38.741Z,99527.75
2023-05-05T14:53:05.817Z,99530.41
2023-05-05T14:55:33.255Z,99529.84
2023-05-05T14:58:00.055Z,99526.84
2023-05-05T15:00:29.778Z,99525.81
2023-05-05T15:02:56.702Z,99526.91
2023-05-05T15:05:23.723Z,99519.63
2023-05-05T15:07:50.790Z,99527.34
2023-05-05T15:10:19.119Z,99519.13
2023-05-05T15:12:47.358Z,99511.06
2023-05-05T15:15:14.898Z,99506.06
2023-05-05T15:17:42.037Z,99512.69
2023-05-05T15:20:09.681Z,99514.94
2023-05-05T15:22:36.571Z,99508.84
2023-05-05T15:25:03.578Z,99496.22
2023-05-05T15:27:31.769Z,99500.69
2023-05-05T15:29:58.886Z,99496.50
2023-05-05T15:32:25.777Z,99496.50
2023-05-05T15:34:52.840Z,99500.16
2023-05-05T15:37:19.757Z,99480.00
2023-05-05T15:39:46.664Z,99488.97
2023-05-05T15:42:13.569Z,99496.00
2023-05-05T15:44:42.083Z,99490.78
2023-05-05T15:47:10.933Z,99486.97
2023-05-05T15:49:37.974Z,99489.47
2023-05-05T15:52:05.055Z,99491.63
2023-05-05T15:54:33.760Z,99496.38
2023-05-05T15:57:00.629Z,99487.16
2023-05-05T15:59:27.544Z,99489.34
2023-05-05T16:01:54.425Z,99479.41
2023-05-05T16:04:21.474Z,99461.84
2023-05-05T16:06:48.399Z,99495.69
2023-05-05T16:09:15.393Z,99493.63
2023-05-05T16:11:42.439Z,99490.41
2023-05-05T16:14:09.303Z,99497.03
2023-05-05T16:16:36.760Z,99487.78
2023-05-05T16:19:14.239Z,99495.34
2023-05-05T16:21:41.173Z,99498.31
2023-05-05T16:24:08.184Z,99497.84
2023-05-05T16:26:35.953Z,99493.31
2023-05-05T16:29:02.893Z,99494.88
2023-05-05T16:31:30.381Z,99506.44
2023-05-05T16:33:57.454Z,99507.41
2023-05-05T16:36:24.503Z,99505.84
2023-05-05T16:38:51.425Z,99505.91
2023-05-05T16:41:18.231Z,99507.13
2023-05-05T16:43:44.980Z,99507.84
2023-05-05T16:46:12.147Z,99511.94
2023-05-05T16:48:39.070Z,99505.25
2023-05-05T16:51:06.117Z,99513.00
2023-05-05T16:53:33.258Z,99514.06
2023-05-05T16:56:00.414Z,99512.69
2023-05-05T16:58:27.544Z,99504.00
2023-05-05T17:00:54.713Z,99513.31
2023-05-05T17:03:22.648Z,99518.88
2023-05-05T17:05:53.065Z,99515.16
2023-05-05T17:08:19.988Z,99506.84
2023-05-05T17:10:47.222Z,99503.47
2023-05-05T17:13:15.194Z,99511.56
2023-05-05T17:15:43.608Z,99516.53
2023-05-05T17:18:10.857Z,99518.59
2023-05-05T17:20:37.842Z,99519.16
2023-05-05T17:23:05.077Z,99517.16
2023-05-05T17:25:32.079Z,99513.94
2023-05-05T17:27:59.048Z,99511.13
2023-05-05T17:30:26.491Z,99519.91
2023-05-05T17:32:53.773Z,99515.94
2023-05-05T17:35:21.567Z,99517.06
2023-05-05T17:37:48.424Z,99519.81
2023-05-05T17:40:16.743Z,99535.16
2023-05-05T17:42:43.869Z,99522.41
2023-05-05T17:45:11.447Z,99533.16
2023-05-05T17:47:59.229Z,99531.28
2023-05-05T17:50:29.564Z,99528.69
2023-05-05T17:53:47.693Z,99542.31
2023-05-05T17:56:24.189Z,99556.38
2023-05-05T17:58:51.391Z,99541.44
2023-05-05T18:01:26.232Z,99553.19
2023-05-05T18:03:53.320Z,99549.03
2023-05-05T18:06:20.595Z,99556.88
2023-05-05T18:08:47.654Z,99559.97
2023-05-05T18:11:15.389Z,99562.00
2023-05-05T18:13:47.038Z,99565.91
2023-05-05T18:16:17.087Z,99561.22
2023-05-05T18:18:43.989Z,99561.41
2023-05-05T18:21:12.350Z,99568.75
2023-05-05T18:23:40.411Z,99571.75
2023-05-05T18:26:07.895Z,99576.97
2023-05-05T18:28:36.108Z,99571.44
2023-05-05T18:31:03.203Z,99573.59
2023-05-05T18:33:30.002Z,99588.88
2023-05-05T18:35:57.986Z,99579.63
2023-05-05T18:38:24.900Z,99569.41
2023-05-05T18:40:51.781Z,99580.44
2023-05-05T18:43:19.093Z,99589.41
2023-05-05T18:45:45.969Z,99581.28
2023-05-05T18:48:12.799Z,99586.16
2023-05-05T18:50:39.693Z,99575.25
2023-05-05T18:53:06.609Z,99586.31
2023-05-05T18:55:33.584Z,99584.56
2023-05-05T18:58:00.557Z,99575.47
2023-05-05T19:00:27.448Z,99572.72
2023-05-05T19:02:54.478Z,99584.75
2023-05-05T19:05:45.436Z,99587.34
2023-05-05T19:08:12.484Z,99578.09
2023-05-05T19:10:39.362Z,99574.84
2023-05-05T19:13:06.481Z,99576.00
2023-05-05T19:15:33.595Z,99585.09
2023-05-05T19:18:01.150Z,99583.66
2023-05-05T19:20:30.793Z,99574.09
2023-05-05T19:23:03.657Z,99595.56
2023-05-05T19:25:31.389Z,99581.91
2023-05-05T19:27:58.428Z,99578.66
2023-05-05T19:30:25.760Z,99586.09
2023-05-05T19:32:52.680Z,99576.50
2023-05-05T19:35:19.810Z,99572.59
2023-05-05T19:37:46.656Z,99582.50
2023-05-05T19:40:17.751Z,99584.31
2023-05-05T19:42:44.572Z,99567.72
2023-05-05T19:45:11.464Z,99574.56
2023-05-05T19:47:38.358Z,99583.31
2023-05-05T19:50:18.108Z,99578.13
2023-05-05T19:52:47.957Z,99584.13
2023-05-05T19:55:17.809Z,99562.34
2023-05-05T19:57:44.826Z,99576.81
2023-05-05T20:00:12.527Z,99579.41
2023-05-05T20:02:39.594Z,99583.63
2023-05-05T20:05:09.376Z,99580.53
2023-05-05T20:07:36.181Z,99581.00
2023-05-05T20:13:28.335Z,99572.56
2023-05-05T20:15:55.435Z,99579.72
2023-05-05T20:18:22.546Z,99569.97
2023-05-05T20:20:49.417Z,99572.41
2023-05-05T20:23:16.489Z,99557.44
2023-05-05T20:25:43.417Z,99545.25
2023-05-05T20:28:10.323Z,99550.28
2023-05-05T20:30:37.242Z,99551.09
2023-05-05T20:33:04.413Z,99537.59
2023-05-05T20:35:31.461Z,99545.38
2023-05-05T20:37:58.356Z,99550.91
2023-05-05T20:40:25.553Z,99538.38
2023-05-05T20:42:52.348Z,99542.59
2023-05-05T20:45:19.334Z,99538.50
2023-05-05T20:47:46.462Z,99544.81
2023-05-05T20:50:13.683Z,99546.09
2023-05-05T20:52:40.791Z,99550.47
2023-05-05T20:55:08.052Z,99554.84
2023-05-05T20:57:34.856Z,99555.00
2023-05-05T21:00:02.058Z,99550.94
2023-05-05T21:02:28.988Z,99540.50
2023-05-05T21:05:02.340Z,99529.75
2023-05-05T21:07:35.638Z,99535.75
2023-05-05T21:10:03.665Z,99543.03
2023-05-05T21:12:31.567Z,99556.00
2023-05-05T21:14:59.554Z,99559.88
2023-05-05T21:17:27.283Z,99547.19
2023-05-05T21:19:54.963Z,99561.34
2023-05-05T21:22:22.412Z,99554.88
2023-05-05T21:24:49.603Z,99543.81
2023-05-05T21:27:16.661Z,99538.91
2023-05-05T21:29:43.578Z,99537.78
2023-05-05T21:32:11.783Z,99546.56
2023-05-05T21:34:39.693Z,99549.94
2023-05-05T21:37:06.639Z,99554.13
2023-05-05T21:39:33.707Z,99548.94
2023-05-05T21:42:00.923Z,99541.94
2023-05-05T21:44:28.432Z,99540.31
2023-05-05T21:46:55.792Z,99539.06
2023-05-05T21:49:22.937Z,99535.81
2023-05-05T21:51:50.310Z,99537.88
2023-05-05T21:54:17.316Z,99534.63
2023-05-05T21:56:44.425Z,99532.81
2023-05-05T21:59:11.389Z,99535.75
2023-05-05T22:01:38.352Z,99516.09
2023-05-05T22:04:05.399Z,99530.09
2023-05-05T22:06:32.575Z,99527.34
2023-05-05T22:08:59.426Z,99529.28
2023-05-05T22:11:26.680Z,99532.03
2023-05-05T22:13:53.790Z,99535.44
2023-05-05T22:16:20.732Z,99521.78
2023-05-05T22:18:47.699Z,99524.66
2023-05-05T22:21:14.505Z,99532.06
2023-05-05T22:23:44.314Z,99522.00
2023-05-05T22:26:11.693Z,99524.72
2023-05-05T22:28:38.698Z,99527.47
2023-05-05T22:31:05.799Z,99517.69
2023-05-05T22:33:32.990Z,99503.88
2023-05-05T22:35:59.773Z,99509.56
2023-05-05T22:38:26.906Z,99512.94
2023-05-05T22:40:53.850Z,99513.38
2023-05-05T22:43:20.851Z,99518.06
2023-05-05T22:45:47.986Z,99511.47
2023-05-05T22:48:15.069Z,99505.97
2023-05-05T22:50:42.174Z,99502.19
2023-05-05T22:53:09.099Z,99506.06
2023-05-05T22:55:35.979Z,99500.34
2023-05-05T22:58:02.920Z,99495.78
2023-05-05T23:00:29.999Z,99492.84
2023-05-05T23:02:56.953Z,99482.78
2023-05-05T23:05:24.042Z,99499.03
2023-05-05T23:07:51.263Z,99489.66
2023-05-05T23:10:18.402Z,99487.84
2023-05-05T23:12:45.270Z,99484.78
2023-05-05T23:15:12.704Z,99483.66
2023-05-05T23:17:39.860Z,99490.47
2023-05-05T23:20:09.688Z,99496.53
2023-05-05T23:22:36.903Z,99487.53
2023-05-05T23:25:03.922Z,99493.41
2023-05-05T23:27:31.449Z,99496.00
2023-05-05T23:29:58.632Z,99492.91
2023-05-05T23:32:25.526Z,99492.09
2023-05-05T23:34:53.774Z,99474.91
2023-05-05T23:37:20.582Z,99496.28
2023-05-05T23:39:47.616Z,99479.78
2023-05-05T23:42:14.428Z,99482.66
2023-05-05T23:44:41.499Z,99486.91
2023-05-05T23:47:08.353Z,99482.41
2023-05-05T23:49:35.801Z,99474.16
2023-05-05T23:52:03.477Z,99474.97
2023-05-05T23:54:30.348Z,99465.56
2023-05-05T23:56:57.355Z,99475.78
2023-05-05T23:59:24.220Z,99466.50
